sensor_id;sensor_type;location;lat;lon;timestamp;P1;durP1;ratioP1;P2;durP2;ratioP2
21878;SDS011;27908;42.708;23.278;2023-01-20T00:02:09;4.73;;;1.43;;
21878;SDS011;27908;42.708;23.278;2023-01-20T00:04:34;6.27;;;1.70;;
21878;SDS011;27908;42.708;23.278;2023-01-20T00:07:00;5.63;;;1.80;;
21878;SDS011;27908;42.708;23.278;2023-01-20T00:09:25;5.33;;;1.70;;
21878;SDS011;27908;42.708;23.278;2023-01-20T00:11:50;7.53;;;1.70;;
21878;SDS011;27908;42.708;23.278;2023-01-20T00:14:16;7.63;;;1.70;;
21878;SDS011;27908;42.708;23.278;2023-01-20T00:16:41;3.73;;;1.10;;
21878;SDS011;27908;42.708;23.278;2023-01-20T00:19:08;3.63;;;1.33;;
21878;SDS011;27908;42.708;23.278;2023-01-20T00:21:36;4.20;;;1.20;;
21878;SDS011;27908;42.708;23.278;2023-01-20T00:24:01;2.90;;;1.00;;
21878;SDS011;27908;42.708;23.278;2023-01-20T00:26:26;3.27;;;1.13;;
21878;SDS011;27908;42.708;23.278;2023-01-20T00:28:52;4.63;;;1.30;;
21878;SDS011;27908;42.708;23.278;2023-01-20T00:31:20;3.90;;;1.40;;
21878;SDS011;27908;42.708;23.278;2023-01-20T00:33:47;3.83;;;1.10;;
21878;SDS011;27908;42.708;23.278;2023-01-20T00:36:14;5.10;;;1.60;;
21878;SDS011;27908;42.708;23.278;2023-01-20T00:38:56;4.80;;;1.50;;
21878;SDS011;27908;42.708;23.278;2023-01-20T00:41:21;6.23;;;1.60;;
21878;SDS011;27908;42.708;23.278;2023-01-20T00:43:47;6.10;;;1.58;;
21878;SDS011;27908;42.708;23.278;2023-01-20T00:46:13;5.20;;;1.58;;
21878;SDS011;27908;42.708;23.278;2023-01-20T00:48:39;4.90;;;1.50;;
21878;SDS011;27908;42.708;23.278;2023-01-20T00:51:05;6.33;;;1.90;;
21878;SDS011;27908;42.708;23.278;2023-01-20T00:53:32;4.30;;;1.25;;
21878;SDS011;27908;42.708;23.278;2023-01-20T00:55:58;3.97;;;1.27;;
21878;SDS011;27908;42.708;23.278;2023-01-20T00:58:23;6.50;;;1.57;;
21878;SDS011;27908;42.708;23.278;2023-01-20T01:00:50;4.45;;;1.40;;
21878;SDS011;27908;42.708;23.278;2023-01-20T01:03:16;3.23;;;1.10;;
21878;SDS011;27908;42.708;23.278;2023-01-20T01:05:42;3.50;;;1.00;;
21878;SDS011;27908;42.708;23.278;2023-01-20T01:08:08;3.67;;;1.20;;
21878;SDS011;27908;42.708;23.278;2023-01-20T01:10:33;3.43;;;1.10;;
21878;SDS011;27908;42.708;23.278;2023-01-20T01:12:59;3.90;;;1.38;;
21878;SDS011;27908;42.708;23.278;2023-01-20T01:15:26;4.93;;;0.93;;
21878;SDS011;27908;42.708;23.278;2023-01-20T01:17:52;3.70;;;1.27;;
21878;SDS011;27908;42.708;23.278;2023-01-20T01:20:18;4.15;;;1.25;;
21878;SDS011;27908;42.708;23.278;2023-01-20T01:22:44;4.23;;;1.27;;
21878;SDS011;27908;42.708;23.278;2023-01-20T01:25:09;4.35;;;1.10;;
21878;SDS011;27908;42.708;23.278;2023-01-20T01:27:53;3.70;;;1.07;;
21878;SDS011;27908;42.708;23.278;2023-01-20T01:30:18;4.00;;;1.20;;
21878;SDS011;27908;42.708;23.278;2023-01-20T01:32:44;5.47;;;1.20;;
21878;SDS011;27908;42.708;23.278;2023-01-20T01:35:09;3.73;;;1.17;;
21878;SDS011;27908;42.708;23.278;2023-01-20T01:37:34;4.50;;;1.40;;
21878;SDS011;27908;42.708;23.278;2023-01-20T01:40:00;3.57;;;1.03;;
21878;SDS011;27908;42.708;23.278;2023-01-20T01:42:25;3.88;;;1.10;;
21878;SDS011;27908;42.708;23.278;2023-01-20T01:47:35;4.47;;;1.33;;
21878;SDS011;27908;42.708;23.278;2023-01-20T01:50:04;5.33;;;1.50;;
21878;SDS011;27908;42.708;23.278;2023-01-20T01:52:30;4.57;;;1.33;;
21878;SDS011;27908;42.708;23.278;2023-01-20T01:54:57;3.83;;;1.35;;
21878;SDS011;27908;42.708;23.278;2023-01-20T01:57:23;3.67;;;1.10;;
21878;SDS011;27908;42.708;23.278;2023-01-20T01:59:49;3.95;;;1.35;;
21878;SDS011;27908;42.708;23.278;2023-01-20T02:02:15;4.90;;;1.50;;
21878;SDS011;27908;42.708;23.278;2023-01-20T02:04:40;3.95;;;1.27;;
21878;SDS011;27908;42.708;23.278;2023-01-20T02:07:13;5.03;;;1.43;;
21878;SDS011;27908;42.708;23.278;2023-01-20T02:09:43;3.17;;;1.00;;
21878;SDS011;27908;42.708;23.278;2023-01-20T02:12:14;3.67;;;1.23;;
21878;SDS011;27908;42.708;23.278;2023-01-20T02:14:43;5.97;;;1.07;;
21878;SDS011;27908;42.708;23.278;2023-01-20T02:35:07;3.75;;;1.30;;
21878;SDS011;27908;42.708;23.278;2023-01-20T02:37:37;6.05;;;1.90;;
21878;SDS011;27908;42.708;23.278;2023-01-20T02:40:24;5.50;;;1.58;;
21878;SDS011;27908;42.708;23.278;2023-01-20T02:45:55;5.82;;;1.77;;
21878;SDS011;27908;42.708;23.278;2023-01-20T02:48:46;4.40;;;1.60;;
21878;SDS011;27908;42.708;23.278;2023-01-20T02:51:31;5.00;;;1.48;;
21878;SDS011;27908;42.708;23.278;2023-01-20T02:54:04;5.22;;;1.65;;
21878;SDS011;27908;42.708;23.278;2023-01-20T02:56:34;4.37;;;1.40;;
21878;SDS011;27908;42.708;23.278;2023-01-20T02:59:02;4.05;;;1.30;;
21878;SDS011;27908;42.708;23.278;2023-01-20T03:01:40;5.50;;;1.65;;
21878;SDS011;27908;42.708;23.278;2023-01-20T03:04:09;7.10;;;1.30;;
21878;SDS011;27908;42.708;23.278;2023-01-20T03:06:41;3.85;;;1.10;;
21878;SDS011;27908;42.708;23.278;2023-01-20T03:09:12;4.00;;;1.40;;
21878;SDS011;27908;42.708;23.278;2023-01-20T03:11:44;4.25;;;1.25;;
21878;SDS011;27908;42.708;23.278;2023-01-20T03:14:25;4.22;;;1.25;;
21878;SDS011;27908;42.708;23.278;2023-01-20T03:16:51;6.78;;;1.25;;
21878;SDS011;27908;42.708;23.278;2023-01-20T03:19:17;4.97;;;1.10;;
21878;SDS011;27908;42.708;23.278;2023-01-20T03:21:44;5.13;;;1.42;;
21878;SDS011;27908;42.708;23.278;2023-01-20T03:24:09;5.77;;;1.30;;
21878;SDS011;27908;42.708;23.278;2023-01-20T03:26:35;3.83;;;1.30;;
21878;SDS011;27908;42.708;23.278;2023-01-20T03:29:02;3.53;;;1.10;;
21878;SDS011;27908;42.708;23.278;2023-01-20T03:31:33;4.47;;;1.42;;
21878;SDS011;27908;42.708;23.278;2023-01-20T03:34:17;4.57;;;1.42;;
21878;SDS011;27908;42.708;23.278;2023-01-20T03:36:46;4.05;;;1.30;;
21878;SDS011;27908;42.708;23.278;2023-01-20T03:39:13;6.45;;;1.35;;
21878;SDS011;27908;42.708;23.278;2023-01-20T03:44:39;3.92;;;1.35;;
21878;SDS011;27908;42.708;23.278;2023-01-20T03:58:49;7.57;;;1.92;;
21878;SDS011;27908;42.708;23.278;2023-01-20T04:01:20;5.32;;;2.00;;
21878;SDS011;27908;42.708;23.278;2023-01-20T04:03:51;5.03;;;1.80;;
21878;SDS011;27908;42.708;23.278;2023-01-20T04:06:19;6.60;;;1.80;;
21878;SDS011;27908;42.708;23.278;2023-01-20T04:08:50;6.97;;;1.80;;
21878;SDS011;27908;42.708;23.278;2023-01-20T04:11:18;5.50;;;1.60;;
21878;SDS011;27908;42.708;23.278;2023-01-20T04:13:44;4.55;;;1.60;;
21878;SDS011;27908;42.708;23.278;2023-01-20T04:16:12;5.40;;;1.60;;
21878;SDS011;27908;42.708;23.278;2023-01-20T04:18:41;5.35;;;1.60;;
21878;SDS011;27908;42.708;23.278;2023-01-20T04:21:11;5.40;;;1.43;;
21878;SDS011;27908;42.708;23.278;2023-01-20T04:23:51;5.72;;;1.73;;
21878;SDS011;27908;42.708;23.278;2023-01-20T04:26:27;5.13;;;1.85;;
21878;SDS011;27908;42.708;23.278;2023-01-20T04:28:52;4.87;;;1.60;;
21878;SDS011;27908;42.708;23.278;2023-01-20T04:31:18;5.33;;;1.90;;
21878;SDS011;27908;42.708;23.278;2023-01-20T04:33:43;6.93;;;2.00;;
21878;SDS011;27908;42.708;23.278;2023-01-20T04:36:08;4.67;;;1.50;;
21878;SDS011;27908;42.708;23.278;2023-01-20T04:38:34;5.90;;;1.87;;
21878;SDS011;27908;42.708;23.278;2023-01-20T04:40:59;6.67;;;2.50;;
21878;SDS011;27908;42.708;23.278;2023-01-20T04:43:25;5.70;;;2.00;;
21878;SDS011;27908;42.708;23.278;2023-01-20T04:45:50;5.75;;;1.88;;
21878;SDS011;27908;42.708;23.278;2023-01-20T04:48:15;6.03;;;2.40;;
21878;SDS011;27908;42.708;23.278;2023-01-20T04:50:41;5.93;;;2.07;;
21878;SDS011;27908;42.708;23.278;2023-01-20T04:53:09;7.00;;;2.33;;
21878;SDS011;27908;42.708;23.278;2023-01-20T04:55:37;5.80;;;2.20;;
21878;SDS011;27908;42.708;23.278;2023-01-20T04:58:02;7.03;;;2.03;;
21878;SDS011;27908;42.708;23.278;2023-01-20T05:00:28;7.80;;;2.20;;
21878;SDS011;27908;42.708;23.278;2023-01-20T05:02:55;6.40;;;2.57;;
21878;SDS011;27908;42.708;23.278;2023-01-20T05:05:22;6.70;;;2.53;;
21878;SDS011;27908;42.708;23.278;2023-01-20T05:07:50;11.67;;;4.73;;
21878;SDS011;27908;42.708;23.278;2023-01-20T05:10:16;8.20;;;2.63;;
21878;SDS011;27908;42.708;23.278;2023-01-20T05:12:41;10.47;;;4.67;;
21878;SDS011;27908;42.708;23.278;2023-01-20T05:15:07;14.73;;;7.20;;
21878;SDS011;27908;42.708;23.278;2023-01-20T05:17:33;12.40;;;5.53;;
21878;SDS011;27908;42.708;23.278;2023-01-20T05:19:58;9.90;;;4.20;;
21878;SDS011;27908;42.708;23.278;2023-01-20T05:22:23;11.53;;;3.77;;
21878;SDS011;27908;42.708;23.278;2023-01-20T05:24:49;8.25;;;3.70;;
21878;SDS011;27908;42.708;23.278;2023-01-20T05:27:14;8.10;;;3.10;;
21878;SDS011;27908;42.708;23.278;2023-01-20T05:29:40;6.43;;;2.60;;
21878;SDS011;27908;42.708;23.278;2023-01-20T05:32:05;9.70;;;3.27;;
21878;SDS011;27908;42.708;23.278;2023-01-20T05:34:30;8.13;;;3.33;;
21878;SDS011;27908;42.708;23.278;2023-01-20T05:36:56;7.13;;;2.77;;
21878;SDS011;27908;42.708;23.278;2023-01-20T05:39:21;7.17;;;2.80;;
21878;SDS011;27908;42.708;23.278;2023-01-20T05:41:47;7.70;;;2.90;;
21878;SDS011;27908;42.708;23.278;2023-01-20T05:44:12;7.80;;;3.17;;
21878;SDS011;27908;42.708;23.278;2023-01-20T05:46:39;8.23;;;3.38;;
21878;SDS011;27908;42.708;23.278;2023-01-20T05:49:04;8.60;;;3.53;;
21878;SDS011;27908;42.708;23.278;2023-01-20T05:51:30;8.13;;;3.40;;
21878;SDS011;27908;42.708;23.278;2023-01-20T05:53:56;10.90;;;4.00;;
21878;SDS011;27908;42.708;23.278;2023-01-20T05:56:21;9.70;;;3.80;;
21878;SDS011;27908;42.708;23.278;2023-01-20T05:58:47;9.07;;;4.13;;
21878;SDS011;27908;42.708;23.278;2023-01-20T06:01:13;5.73;;;2.53;;
21878;SDS011;27908;42.708;23.278;2023-01-20T06:03:38;6.45;;;2.10;;
21878;SDS011;27908;42.708;23.278;2023-01-20T06:06:05;7.80;;;3.38;;
21878;SDS011;27908;42.708;23.278;2023-01-20T06:08:32;8.73;;;3.73;;
21878;SDS011;27908;42.708;23.278;2023-01-20T06:10:58;10.57;;;3.72;;
21878;SDS011;27908;42.708;23.278;2023-01-20T06:13:23;9.43;;;4.00;;
21878;SDS011;27908;42.708;23.278;2023-01-20T06:15:50;8.73;;;3.83;;
21878;SDS011;27908;42.708;23.278;2023-01-20T06:18:21;10.25;;;4.20;;
21878;SDS011;27908;42.708;23.278;2023-01-20T06:20:48;10.87;;;4.03;;
21878;SDS011;27908;42.708;23.278;2023-01-20T06:23:13;15.48;;;4.72;;
21878;SDS011;27908;42.708;23.278;2023-01-20T06:25:39;10.13;;;4.30;;
21878;SDS011;27908;42.708;23.278;2023-01-20T06:28:06;12.70;;;5.25;;
21878;SDS011;27908;42.708;23.278;2023-01-20T06:30:32;13.20;;;5.20;;
21878;SDS011;27908;42.708;23.278;2023-01-20T06:32:57;11.37;;;4.80;;
21878;SDS011;27908;42.708;23.278;2023-01-20T06:35:23;11.55;;;5.10;;
21878;SDS011;27908;42.708;23.278;2023-01-20T06:37:49;16.43;;;5.57;;
21878;SDS011;27908;42.708;23.278;2023-01-20T06:40:14;10.27;;;5.20;;
21878;SDS011;27908;42.708;23.278;2023-01-20T06:42:41;12.80;;;5.57;;
21878;SDS011;27908;42.708;23.278;2023-01-20T06:45:06;13.40;;;6.17;;
21878;SDS011;27908;42.708;23.278;2023-01-20T06:47:32;14.68;;;5.80;;
21878;SDS011;27908;42.708;23.278;2023-01-20T06:49:57;13.93;;;6.00;;
21878;SDS011;27908;42.708;23.278;2023-01-20T06:52:23;14.73;;;5.20;;
21878;SDS011;27908;42.708;23.278;2023-01-20T06:54:48;12.67;;;5.73;;
21878;SDS011;27908;42.708;23.278;2023-01-20T06:57:14;10.93;;;5.53;;
21878;SDS011;27908;42.708;23.278;2023-01-20T06:59:39;11.00;;;4.67;;
21878;SDS011;27908;42.708;23.278;2023-01-20T07:02:05;11.88;;;5.70;;
21878;SDS011;27908;42.708;23.278;2023-01-20T07:04:30;12.43;;;6.00;;
21878;SDS011;27908;42.708;23.278;2023-01-20T07:06:56;12.40;;;5.82;;
21878;SDS011;27908;42.708;23.278;2023-01-20T07:09:21;10.60;;;5.17;;
21878;SDS011;27908;42.708;23.278;2023-01-20T07:11:47;9.47;;;4.50;;
21878;SDS011;27908;42.708;23.278;2023-01-20T07:14:12;11.32;;;5.15;;
21878;SDS011;27908;42.708;23.278;2023-01-20T07:16:38;11.47;;;5.53;;
21878;SDS011;27908;42.708;23.278;2023-01-20T07:19:03;10.57;;;5.23;;
21878;SDS011;27908;42.708;23.278;2023-01-20T07:21:29;11.95;;;5.70;;
21878;SDS011;27908;42.708;23.278;2023-01-20T07:23:54;10.63;;;5.13;;
21878;SDS011;27908;42.708;23.278;2023-01-20T07:26:21;10.63;;;5.77;;
21878;SDS011;27908;42.708;23.278;2023-01-20T07:28:48;14.82;;;6.50;;
21878;SDS011;27908;42.708;23.278;2023-01-20T07:31:18;13.38;;;6.00;;
21878;SDS011;27908;42.708;23.278;2023-01-20T07:33:48;13.43;;;5.82;;
21878;SDS011;27908;42.708;23.278;2023-01-20T07:36:14;13.37;;;6.07;;
21878;SDS011;27908;42.708;23.278;2023-01-20T07:38:40;12.77;;;6.30;;
21878;SDS011;27908;42.708;23.278;2023-01-20T07:41:07;11.77;;;5.63;;
21878;SDS011;27908;42.708;23.278;2023-01-20T07:43:35;12.20;;;4.80;;
21878;SDS011;27908;42.708;23.278;2023-01-20T07:46:01;11.73;;;4.97;;
21878;SDS011;27908;42.708;23.278;2023-01-20T07:48:29;11.02;;;4.78;;
21878;SDS011;27908;42.708;23.278;2023-01-20T07:51:00;11.40;;;4.67;;
21878;SDS011;27908;42.708;23.278;2023-01-20T07:53:29;11.57;;;4.70;;
21878;SDS011;27908;42.708;23.278;2023-01-20T07:55:59;12.63;;;5.32;;
21878;SDS011;27908;42.708;23.278;2023-01-20T07:58:29;10.55;;;4.57;;
21878;SDS011;27908;42.708;23.278;2023-01-20T08:00:55;10.32;;;5.25;;
21878;SDS011;27908;42.708;23.278;2023-01-20T08:03:20;11.97;;;6.07;;
21878;SDS011;27908;42.708;23.278;2023-01-20T08:05:46;9.80;;;4.97;;
21878;SDS011;27908;42.708;23.278;2023-01-20T08:08:11;11.33;;;4.60;;
21878;SDS011;27908;42.708;23.278;2023-01-20T08:10:37;13.23;;;5.40;;
21878;SDS011;27908;42.708;23.278;2023-01-20T08:13:02;8.43;;;3.90;;
21878;SDS011;27908;42.708;23.278;2023-01-20T08:15:28;13.15;;;5.00;;
21878;SDS011;27908;42.708;23.278;2023-01-20T08:17:54;13.60;;;5.17;;
21878;SDS011;27908;42.708;23.278;2023-01-20T08:20:20;13.32;;;5.47;;
21878;SDS011;27908;42.708;23.278;2023-01-20T08:22:45;11.83;;;5.20;;
21878;SDS011;27908;42.708;23.278;2023-01-20T08:25:11;10.73;;;4.35;;
21878;SDS011;27908;42.708;23.278;2023-01-20T08:27:36;10.97;;;4.10;;
21878;SDS011;27908;42.708;23.278;2023-01-20T08:30:02;9.07;;;4.23;;
21878;SDS011;27908;42.708;23.278;2023-01-20T08:32:28;8.43;;;3.83;;
21878;SDS011;27908;42.708;23.278;2023-01-20T08:34:53;11.17;;;4.20;;
21878;SDS011;27908;42.708;23.278;2023-01-20T08:37:19;10.88;;;4.57;;
21878;SDS011;27908;42.708;23.278;2023-01-20T08:39:44;10.53;;;4.90;;
21878;SDS011;27908;42.708;23.278;2023-01-20T08:42:10;12.47;;;5.63;;
21878;SDS011;27908;42.708;23.278;2023-01-20T08:44:35;10.40;;;4.87;;
21878;SDS011;27908;42.708;23.278;2023-01-20T08:47:01;11.15;;;4.45;;
21878;SDS011;27908;42.708;23.278;2023-01-20T08:49:27;11.97;;;5.37;;
21878;SDS011;27908;42.708;23.278;2023-01-20T08:51:53;15.32;;;5.70;;
21878;SDS011;27908;42.708;23.278;2023-01-20T08:54:20;12.50;;;5.35;;
21878;SDS011;27908;42.708;23.278;2023-01-20T08:56:50;11.80;;;4.72;;
21878;SDS011;27908;42.708;23.278;2023-01-20T08:59:16;12.60;;;5.93;;
21878;SDS011;27908;42.708;23.278;2023-01-20T09:01:43;13.40;;;6.57;;
21878;SDS011;27908;42.708;23.278;2023-01-20T09:04:08;11.60;;;5.07;;
21878;SDS011;27908;42.708;23.278;2023-01-20T09:06:38;12.10;;;5.30;;
21878;SDS011;27908;42.708;23.278;2023-01-20T09:09:09;12.32;;;5.53;;
21878;SDS011;27908;42.708;23.278;2023-01-20T09:11:35;9.90;;;5.07;;
21878;SDS011;27908;42.708;23.278;2023-01-20T09:14:01;11.20;;;4.40;;
21878;SDS011;27908;42.708;23.278;2023-01-20T09:16:26;10.10;;;4.20;;
21878;SDS011;27908;42.708;23.278;2023-01-20T09:18:52;11.07;;;4.07;;
21878;SDS011;27908;42.708;23.278;2023-01-20T09:21:17;8.80;;;3.80;;
21878;SDS011;27908;42.708;23.278;2023-01-20T09:23:43;9.37;;;4.00;;
21878;SDS011;27908;42.708;23.278;2023-01-20T09:26:10;7.57;;;3.25;;
21878;SDS011;27908;42.708;23.278;2023-01-20T09:28:36;8.63;;;3.90;;
21878;SDS011;27908;42.708;23.278;2023-01-20T09:31:03;9.75;;;3.42;;
21878;SDS011;27908;42.708;23.278;2023-01-20T09:33:31;7.23;;;2.87;;
21878;SDS011;27908;42.708;23.278;2023-01-20T09:36:00;10.23;;;2.53;;
21878;SDS011;27908;42.708;23.278;2023-01-20T09:38:27;7.30;;;2.97;;
21878;SDS011;27908;42.708;23.278;2023-01-20T09:41:25;6.82;;;2.33;;
21878;SDS011;27908;42.708;23.278;2023-01-20T09:44:32;7.65;;;2.38;;
21878;SDS011;27908;42.708;23.278;2023-01-20T09:52:44;5.53;;;1.67;;
21878;SDS011;27908;42.708;23.278;2023-01-20T09:58:23;5.82;;;1.75;;
21878;SDS011;27908;42.708;23.278;2023-01-20T10:03:34;5.60;;;1.67;;
21878;SDS011;27908;42.708;23.278;2023-01-20T10:06:11;6.13;;;1.98;;
21878;SDS011;27908;42.708;23.278;2023-01-20T10:08:46;5.40;;;1.60;;
21878;SDS011;27908;42.708;23.278;2023-01-20T10:11:19;5.43;;;1.70;;
21878;SDS011;27908;42.708;23.278;2023-01-20T10:16:47;6.05;;;2.00;;
21878;SDS011;27908;42.708;23.278;2023-01-20T10:21:47;8.27;;;2.33;;
21878;SDS011;27908;42.708;23.278;2023-01-20T10:24:19;6.38;;;2.15;;
21878;SDS011;27908;42.708;23.278;2023-01-20T10:27:00;5.88;;;2.00;;
21878;SDS011;27908;42.708;23.278;2023-01-20T10:29:28;6.60;;;2.20;;
21878;SDS011;27908;42.708;23.278;2023-01-20T10:32:00;8.13;;;2.80;;
21878;SDS011;27908;42.708;23.278;2023-01-20T10:34:30;7.50;;;2.60;;
21878;SDS011;27908;42.708;23.278;2023-01-20T10:37:08;6.45;;;2.25;;
21878;SDS011;27908;42.708;23.278;2023-01-20T10:42:16;6.82;;;3.00;;
21878;SDS011;27908;42.708;23.278;2023-01-20T10:44:42;8.98;;;2.70;;
21878;SDS011;27908;42.708;23.278;2023-01-20T10:47:27;6.20;;;2.10;;
21878;SDS011;27908;42.708;23.278;2023-01-20T11:00:42;11.17;;;4.23;;
21878;SDS011;27908;42.708;23.278;2023-01-20T11:03:09;14.10;;;5.75;;
21878;SDS011;27908;42.708;23.278;2023-01-20T11:05:39;14.60;;;6.35;;
21878;SDS011;27908;42.708;23.278;2023-01-20T11:08:13;8.07;;;3.22;;
21878;SDS011;27908;42.708;23.278;2023-01-20T11:10:39;9.67;;;2.93;;
21878;SDS011;27908;42.708;23.278;2023-01-20T11:13:07;8.50;;;3.97;;
21878;SDS011;27908;42.708;23.278;2023-01-20T11:15:34;9.52;;;4.35;;
21878;SDS011;27908;42.708;23.278;2023-01-20T11:20:46;13.73;;;6.68;;
21878;SDS011;27908;42.708;23.278;2023-01-20T11:25:57;10.70;;;5.28;;
21878;SDS011;27908;42.708;23.278;2023-01-20T11:28:24;10.23;;;3.97;;
21878;SDS011;27908;42.708;23.278;2023-01-20T11:30:54;8.15;;;3.25;;
21878;SDS011;27908;42.708;23.278;2023-01-20T11:38:27;3.88;;;1.00;;
21878;SDS011;27908;42.708;23.278;2023-01-20T11:41:18;5.47;;;1.38;;
21878;SDS011;27908;42.708;23.278;2023-01-20T11:43:45;4.10;;;1.38;;
21878;SDS011;27908;42.708;23.278;2023-01-20T11:46:14;3.90;;;1.40;;
21878;SDS011;27908;42.708;23.278;2023-01-20T11:48:49;4.28;;;1.38;;
21878;SDS011;27908;42.708;23.278;2023-01-20T11:51:21;4.30;;;1.60;;
21878;SDS011;27908;42.708;23.278;2023-01-20T11:54:05;4.35;;;1.45;;
21878;SDS011;27908;42.708;23.278;2023-01-20T11:56:36;4.50;;;1.10;;
21878;SDS011;27908;42.708;23.278;2023-01-20T11:59:15;4.70;;;1.50;;
21878;SDS011;27908;42.708;23.278;2023-01-20T12:01:54;4.53;;;1.63;;
21878;SDS011;27908;42.708;23.278;2023-01-20T12:07:21;3.97;;;1.40;;
21878;SDS011;27908;42.708;23.278;2023-01-20T12:09:52;3.60;;;1.20;;
21878;SDS011;27908;42.708;23.278;2023-01-20T12:15:04;3.92;;;1.10;;
21878;SDS011;27908;42.708;23.278;2023-01-20T12:17:45;3.35;;;1.13;;
21878;SDS011;27908;42.708;23.278;2023-01-20T12:23:06;3.17;;;0.90;;
21878;SDS011;27908;42.708;23.278;2023-01-20T12:25:49;4.35;;;1.30;;
21878;SDS011;27908;42.708;23.278;2023-01-20T12:28:39;6.93;;;2.20;;
21878;SDS011;27908;42.708;23.278;2023-01-20T12:31:23;4.88;;;1.80;;
21878;SDS011;27908;42.708;23.278;2023-01-20T12:33:50;5.27;;;1.80;;
21878;SDS011;27908;42.708;23.278;2023-01-20T12:56:50;4.47;;;1.70;;
21878;SDS011;27908;42.708;23.278;2023-01-20T12:59:47;4.47;;;1.40;;
21878;SDS011;27908;42.708;23.278;2023-01-20T13:08:09;7.03;;;2.90;;
21878;SDS011;27908;42.708;23.278;2023-01-20T13:16:36;8.43;;;2.67;;
21878;SDS011;27908;42.708;23.278;2023-01-20T13:19:13;6.30;;;2.40;;
21878;SDS011;27908;42.708;23.278;2023-01-20T13:21:43;5.32;;;1.48;;
21878;SDS011;27908;42.708;23.278;2023-01-20T13:24:13;5.47;;;2.27;;
21878;SDS011;27908;42.708;23.278;2023-01-20T13:26:46;8.85;;;3.17;;
21878;SDS011;27908;42.708;23.278;2023-01-20T13:32:26;5.32;;;1.80;;
21878;SDS011;27908;42.708;23.278;2023-01-20T13:37:50;5.90;;;2.43;;
21878;SDS011;27908;42.708;23.278;2023-01-20T13:43:03;5.95;;;2.10;;
21878;SDS011;27908;42.708;23.278;2023-01-20T13:51:44;5.97;;;1.97;;
21878;SDS011;27908;42.708;23.278;2023-01-20T13:57:07;9.23;;;3.45;;
21878;SDS011;27908;42.708;23.278;2023-01-20T13:59:52;13.20;;;5.25;;
21878;SDS011;27908;42.708;23.278;2023-01-20T14:02:19;9.25;;;3.00;;
21878;SDS011;27908;42.708;23.278;2023-01-20T14:04:45;6.80;;;2.70;;
21878;SDS011;27908;42.708;23.278;2023-01-20T14:07:23;6.88;;;3.00;;
21878;SDS011;27908;42.708;23.278;2023-01-20T14:09:51;5.80;;;2.20;;
21878;SDS011;27908;42.708;23.278;2023-01-20T14:12:20;8.53;;;2.37;;
21878;SDS011;27908;42.708;23.278;2023-01-20T14:14:46;10.30;;;3.22;;
21878;SDS011;27908;42.708;23.278;2023-01-20T14:17:14;6.88;;;2.95;;
21878;SDS011;27908;42.708;23.278;2023-01-20T14:19:46;6.25;;;2.47;;
21878;SDS011;27908;42.708;23.278;2023-01-20T14:22:17;5.60;;;2.00;;
21878;SDS011;27908;42.708;23.278;2023-01-20T14:24:51;4.68;;;1.50;;
21878;SDS011;27908;42.708;23.278;2023-01-20T14:27:23;4.70;;;1.65;;
21878;SDS011;27908;42.708;23.278;2023-01-20T14:29:55;7.05;;;2.40;;
21878;SDS011;27908;42.708;23.278;2023-01-20T14:32:24;6.03;;;2.03;;
21878;SDS011;27908;42.708;23.278;2023-01-20T14:34:55;4.43;;;1.75;;
21878;SDS011;27908;42.708;23.278;2023-01-20T14:37:24;6.50;;;1.42;;
21878;SDS011;27908;42.708;23.278;2023-01-20T14:39:52;6.53;;;2.00;;
21878;SDS011;27908;42.708;23.278;2023-01-20T14:42:19;5.75;;;1.80;;
21878;SDS011;27908;42.708;23.278;2023-01-20T14:44:47;5.47;;;2.33;;
21878;SDS011;27908;42.708;23.278;2023-01-20T14:47:18;5.43;;;2.20;;
21878;SDS011;27908;42.708;23.278;2023-01-20T14:49:45;5.57;;;2.22;;
21878;SDS011;27908;42.708;23.278;2023-01-20T14:52:19;5.13;;;2.30;;
21878;SDS011;27908;42.708;23.278;2023-01-20T14:54:48;6.60;;;2.85;;
21878;SDS011;27908;42.708;23.278;2023-01-20T15:02:51;8.35;;;3.10;;
21878;SDS011;27908;42.708;23.278;2023-01-20T15:05:39;5.60;;;2.40;;
21878;SDS011;27908;42.708;23.278;2023-01-20T15:08:18;6.20;;;2.10;;
21878;SDS011;27908;42.708;23.278;2023-01-20T15:10:46;6.53;;;2.55;;
21878;SDS011;27908;42.708;23.278;2023-01-20T15:13:31;6.88;;;2.83;;
21878;SDS011;27908;42.708;23.278;2023-01-20T15:16:14;7.27;;;3.10;;
21878;SDS011;27908;42.708;23.278;2023-01-20T15:26:38;6.50;;;2.23;;
21878;SDS011;27908;42.708;23.278;2023-01-20T15:31:48;5.65;;;2.20;;
21878;SDS011;27908;42.708;23.278;2023-01-20T15:34:18;6.57;;;2.33;;
21878;SDS011;27908;42.708;23.278;2023-01-20T15:36:48;5.35;;;1.98;;
21878;SDS011;27908;42.708;23.278;2023-01-20T15:39:15;6.28;;;2.42;;
21878;SDS011;27908;42.708;23.278;2023-01-20T15:41:42;6.88;;;2.63;;
21878;SDS011;27908;42.708;23.278;2023-01-20T15:44:09;6.35;;;2.72;;
21878;SDS011;27908;42.708;23.278;2023-01-20T15:46:34;5.80;;;2.50;;
21878;SDS011;27908;42.708;23.278;2023-01-20T15:49:00;7.37;;;2.97;;
21878;SDS011;27908;42.708;23.278;2023-01-20T15:51:26;6.68;;;2.78;;
21878;SDS011;27908;42.708;23.278;2023-01-20T15:53:52;6.85;;;2.70;;
21878;SDS011;27908;42.708;23.278;2023-01-20T15:56:19;8.07;;;3.20;;
21878;SDS011;27908;42.708;23.278;2023-01-20T15:58:50;7.10;;;3.25;;
21878;SDS011;27908;42.708;23.278;2023-01-20T16:01:17;6.70;;;2.53;;
21878;SDS011;27908;42.708;23.278;2023-01-20T16:03:44;7.18;;;3.05;;
21878;SDS011;27908;42.708;23.278;2023-01-20T16:06:13;7.07;;;2.95;;
21878;SDS011;27908;42.708;23.278;2023-01-20T16:08:40;8.73;;;3.47;;
21878;SDS011;27908;42.708;23.278;2023-01-20T16:11:07;9.17;;;4.07;;
21878;SDS011;27908;42.708;23.278;2023-01-20T16:13:33;10.18;;;3.55;;
21878;SDS011;27908;42.708;23.278;2023-01-20T16:15:59;6.43;;;3.10;;
21878;SDS011;27908;42.708;23.278;2023-01-20T16:18:25;6.75;;;2.72;;
21878;SDS011;27908;42.708;23.278;2023-01-20T16:20:51;8.27;;;3.40;;
21878;SDS011;27908;42.708;23.278;2023-01-20T16:23:16;7.28;;;2.80;;
21878;SDS011;27908;42.708;23.278;2023-01-20T16:25:42;8.35;;;3.53;;
21878;SDS011;27908;42.708;23.278;2023-01-20T16:28:12;8.90;;;3.73;;
21878;SDS011;27908;42.708;23.278;2023-01-20T16:30:48;8.43;;;3.15;;
21878;SDS011;27908;42.708;23.278;2023-01-20T16:33:20;7.40;;;2.92;;
21878;SDS011;27908;42.708;23.278;2023-01-20T16:35:48;7.00;;;2.92;;
21878;SDS011;27908;42.708;23.278;2023-01-20T16:38:15;9.55;;;4.10;;
21878;SDS011;27908;42.708;23.278;2023-01-20T16:40:43;11.50;;;5.30;;
21878;SDS011;27908;42.708;23.278;2023-01-20T16:43:11;10.90;;;3.47;;
21878;SDS011;27908;42.708;23.278;2023-01-20T16:45:36;6.60;;;2.77;;
21878;SDS011;27908;42.708;23.278;2023-01-20T16:48:02;8.00;;;3.75;;
21878;SDS011;27908;42.708;23.278;2023-01-20T16:50:27;8.93;;;3.63;;
21878;SDS011;27908;42.708;23.278;2023-01-20T16:52:52;10.07;;;3.90;;
21878;SDS011;27908;42.708;23.278;2023-01-20T16:55:18;8.83;;;4.60;;
21878;SDS011;27908;42.708;23.278;2023-01-20T16:57:44;7.38;;;3.67;;
21878;SDS011;27908;42.708;23.278;2023-01-20T17:00:09;8.43;;;4.13;;
21878;SDS011;27908;42.708;23.278;2023-01-20T17:02:35;9.45;;;3.50;;
21878;SDS011;27908;42.708;23.278;2023-01-20T17:05:03;7.93;;;3.45;;
21878;SDS011;27908;42.708;23.278;2023-01-20T17:07:31;8.18;;;3.88;;
21878;SDS011;27908;42.708;23.278;2023-01-20T17:09:56;8.37;;;4.50;;
21878;SDS011;27908;42.708;23.278;2023-01-20T17:12:22;8.33;;;4.07;;
21878;SDS011;27908;42.708;23.278;2023-01-20T17:14:47;8.93;;;3.85;;